sensor_id;sensor_type;location;lat;lon;timestamp;pressure;altitude;pressure_sealevel;temperature;humidity
65534;BME280;53640;55.838;37.184;2023-11-19T00:00:08;100035.34;;;-7.43;45.56
65534;BME280;53640;55.838;37.184;2023-11-19T00:02:38;100015.06;;;-7.57;45.40
65534;BME280;53640;55.838;37.184;2023-11-19T00:05:05;100001.16;;;-7.75;45.37
65534;BME280;53640;55.838;37.184;2023-11-19T00:07:35;100005.16;;;-7.68;45.33
65534;BME280;53640;55.838;37.184;2023-11-19T00:10:02;100032.44;;;-7.55;45.30
65534;BME280;53640;55.838;37.184;2023-11-19T00:12:33;100023.72;;;-7.55;45.43
65534;BME280;53640;55.838;37.184;2023-11-19T00:15:00;100021.25;;;-7.58;45.08
65534;BME280;53640;55.838;37.184;2023-11-19T00:17:26;99950.06;;;-8.01;45.32
65534;BME280;53640;55.838;37.184;2023-11-19T00:19:53;100037.34;;;-7.49;45.55
65534;BME280;53640;55.838;37.184;2023-11-19T00:22:19;100043.28;;;-7.45;45.44
65534;BME280;53640;55.838;37.184;2023-11-19T00:24:47;100041.59;;;-7.46;45.29
65534;BME280;53640;55.838;37.184;2023-11-19T00:27:14;100000.72;;;-7.68;45.37
65534;BME280;53640;55.838;37.184;2023-11-19T00:29:43;99943.97;;;-8.02;45.56
65534;BME280;53640;55.838;37.184;2023-11-19T00:32:12;100030.13;;;-7.45;45.52
65534;BME280;53640;55.838;37.184;2023-11-19T00:34:39;99990.31;;;-7.69;45.43
65534;BME280;53640;55.838;37.184;2023-11-19T00:37:06;100017.94;;;-7.46;45.51
65534;BME280;53640;55.838;37.184;2023-11-19T00:39:33;99936.69;;;-7.97;45.53
65534;BME280;53640;55.838;37.184;2023-11-19T00:41:59;99961.16;;;-7.80;45.61
65534;BME280;53640;55.838;37.184;2023-11-19T00:44:25;100006.75;;;-7.50;45.85
65534;BME280;53640;55.838;37.184;2023-11-19T00:46:52;100004.78;;;-7.46;45.64
65534;BME280;53640;55.838;37.184;2023-11-19T00:49:20;99994.88;;;-7.57;45.47
65534;BME280;53640;55.838;37.184;2023-11-19T00:51:48;100006.56;;;-7.47;45.36
65534;BME280;53640;55.838;37.184;2023-11-19T00:54:15;99974.13;;;-7.61;45.37
65534;BME280;53640;55.838;37.184;2023-11-19T00:56:42;99988.03;;;-7.59;45.42
65534;BME280;53640;55.838;37.184;2023-11-19T00:59:08;99995.28;;;-7.49;45.52
65534;BME280;53640;55.838;37.184;2023-11-19T01:01:35;99962.25;;;-7.69;45.60
65534;BME280;53640;55.838;37.184;2023-11-19T01:04:01;100001.22;;;-7.45;45.60
65534;BME280;53640;55.838;37.184;2023-11-19T01:06:31;99952.00;;;-7.73;45.42
65534;BME280;53640;55.838;37.184;2023-11-19T01:08:58;99993.44;;;-7.47;45.67
65534;BME280;53640;55.838;37.184;2023-11-19T01:11:25;99999.88;;;-7.36;45.63
65534;BME280;53640;55.838;37.184;2023-11-19T01:13:52;99990.53;;;-7.42;45.51
65534;BME280;53640;55.838;37.184;2023-11-19T01:16:20;99954.59;;;-7.57;45.59
65534;BME280;53640;55.838;37.184;2023-11-19T01:18:47;99988.50;;;-7.37;45.74
65534;BME280;53640;55.838;37.184;2023-11-19T01:21:16;99970.72;;;-7.48;45.89
65534;BME280;53640;55.838;37.184;2023-11-19T01:23:42;99939.84;;;-7.60;45.57
65534;BME280;53640;55.838;37.184;2023-11-19T01:26:10;99958.47;;;-7.49;45.41
65534;BME280;53640;55.838;37.184;2023-11-19T01:28:37;99966.19;;;-7.46;45.25
65534;BME280;53640;55.838;37.184;2023-11-19T01:31:05;99983.81;;;-7.32;45.27
65534;BME280;53640;55.838;37.184;2023-11-19T01:33:38;99990.03;;;-7.33;45.22
65534;BME280;53640;55.838;37.184;2023-11-19T01:36:07;99972.78;;;-7.38;45.16
65534;BME280;53640;55.838;37.184;2023-11-19T01:38:35;99961.03;;;-7.47;45.12
65534;BME280;53640;55.838;37.184;2023-11-19T01:41:02;99979.50;;;-7.33;45.21
65534;BME280;53640;55.838;37.184;2023-11-19T01:43:39;99981.19;;;-7.32;45.23
65534;BME280;53640;55.838;37.184;2023-11-19T01:46:09;99944.59;;;-7.51;45.30
65534;BME280;53640;55.838;37.184;2023-11-19T01:48:44;99952.03;;;-7.43;45.20
65534;BME280;53640;55.838;37.184;2023-11-19T01:51:15;99945.00;;;-7.42;45.28
65534;BME280;53640;55.838;37.184;2023-11-19T01:53:44;99964.19;;;-7.26;45.48
65534;BME280;53640;55.838;37.184;2023-11-19T01:56:13;99970.41;;;-7.27;45.46
65534;BME280;53640;55.838;37.184;2023-11-19T01:58:43;99964.47;;;-7.31;45.28
65534;BME280;53640;55.838;37.184;2023-11-19T02:01:12;99917.63;;;-7.54;45.67
65534;BME280;53640;55.838;37.184;2023-11-19T02:03:39;99909.41;;;-7.64;45.59
65534;BME280;53640;55.838;37.184;2023-11-19T02:06:07;99915.06;;;-7.56;45.63
65534;BME280;53640;55.838;37.184;2023-11-19T02:08:36;99933.91;;;-7.48;45.68
65534;BME280;53640;55.838;37.184;2023-11-19T02:11:05;99967.88;;;-7.29;45.81
65534;BME280;53640;55.838;37.184;2023-11-19T02:13:35;99938.66;;;-7.54;45.88
65534;BME280;53640;55.838;37.184;2023-11-19T02:16:05;99901.91;;;-7.70;46.10
65534;BME280;53640;55.838;37.184;2023-11-19T02:18:33;99958.81;;;-7.39;46.21
65534;BME280;53640;55.838;37.184;2023-11-19T02:21:01;99958.97;;;-7.42;46.41
65534;BME280;53640;55.838;37.184;2023-11-19T02:23:30;99956.63;;;-7.47;46.55
65534;BME280;53640;55.838;37.184;2023-11-19T02:26:03;99894.91;;;-7.85;46.60
65534;BME280;53640;55.838;37.184;2023-11-19T02:28:36;99897.53;;;-7.85;46.69
65534;BME280;53640;55.838;37.184;2023-11-19T02:31:03;99953.31;;;-7.50;46.84
65534;BME280;53640;55.838;37.184;2023-11-19T02:33:37;99895.22;;;-7.91;46.92
65534;BME280;53640;55.838;37.184;2023-11-19T02:36:05;99963.06;;;-7.52;47.26
65534;BME280;53640;55.838;37.184;2023-11-19T02:38:34;99949.50;;;-7.60;47.37
65534;BME280;53640;55.838;37.184;2023-11-19T02:41:03;99943.41;;;-7.61;47.30
65534;BME280;53640;55.838;37.184;2023-11-19T02:43:36;99958.00;;;-7.55;47.55
65534;BME280;53640;55.838;37.184;2023-11-19T02:46:04;99890.16;;;-7.95;47.60
65534;BME280;53640;55.838;37.184;2023-11-19T02:48:35;99931.66;;;-7.70;48.03
65534;BME280;53640;55.838;37.184;2023-11-19T02:51:05;99922.31;;;-7.75;48.04
65534;BME280;53640;55.838;37.184;2023-11-19T02:53:36;99881.03;;;-8.03;48.26
65534;BME280;53640;55.838;37.184;2023-11-19T02:56:04;99939.38;;;-7.66;48.61
65534;BME280;53640;55.838;37.184;2023-11-19T02:58:51;99952.66;;;-7.54;48.64
65534;BME280;53640;55.838;37.184;2023-11-19T03:01:22;99936.66;;;-7.65;48.75
65534;BME280;53640;55.838;37.184;2023-11-19T03:04:00;99914.72;;;-7.80;48.87
65534;BME280;53640;55.838;37.184;2023-11-19T03:06:28;99947.56;;;-7.57;48.90
65534;BME280;53640;55.838;37.184;2023-11-19T03:08:55;99934.25;;;-7.54;49.38
65534;BME280;53640;55.838;37.184;2023-11-19T03:11:22;99764.28;;;-8.59;49.32
65534;BME280;53640;55.838;37.184;2023-11-19T03:13:48;99927.75;;;-7.62;49.42
65534;BME280;53640;55.838;37.184;2023-11-19T03:16:15;99791.28;;;-8.42;49.31
65534;BME280;53640;55.838;37.184;2023-11-19T03:18:42;99933.41;;;-7.54;49.27
65534;BME280;53640;55.838;37.184;2023-11-19T03:21:09;99942.63;;;-7.47;49.34
65534;BME280;53640;55.838;37.184;2023-11-19T03:23:36;99901.97;;;-7.72;49.32
65534;BME280;53640;55.838;37.184;2023-11-19T03:26:03;99849.34;;;-8.00;49.75
65534;BME280;53640;55.838;37.184;2023-11-19T03:28:31;99939.22;;;-7.49;50.04
65534;BME280;53640;55.838;37.184;2023-11-19T03:30:58;99903.91;;;-7.59;49.62
65534;BME280;53640;55.838;37.184;2023-11-19T03:33:25;99843.81;;;-7.96;49.86
65534;BME280;53640;55.838;37.184;2023-11-19T03:35:54;99931.84;;;-7.42;49.75
65534;BME280;53640;55.838;37.184;2023-11-19T03:38:23;99918.81;;;-7.44;50.02
65534;BME280;53640;55.838;37.184;2023-11-19T03:40:50;99913.22;;;-7.54;50.30
65534;BME280;53640;55.838;37.184;2023-11-19T03:43:17;99878.09;;;-7.67;50.37
65534;BME280;53640;55.838;37.184;2023-11-19T03:45:45;99847.22;;;-7.79;50.23
65534;BME280;53640;55.838;37.184;2023-11-19T03:48:13;99861.38;;;-7.66;50.17
65534;BME280;53640;55.838;37.184;2023-11-19T03:50:42;99863.91;;;-7.64;50.29
65534;BME280;53640;55.838;37.184;2023-11-19T03:53:09;99913.84;;;-7.34;50.12
65534;BME280;53640;55.838;37.184;2023-11-19T03:55:35;99899.53;;;-7.45;50.14
65534;BME280;53640;55.838;37.184;2023-11-19T03:58:02;99850.25;;;-7.71;50.04
65534;BME280;53640;55.838;37.184;2023-11-19T04:00:28;99816.41;;;-7.91;49.98
65534;BME280;53640;55.838;37.184;2023-11-19T04:02:55;99853.66;;;-7.69;50.02
65534;BME280;53640;55.838;37.184;2023-11-19T04:05:21;99898.59;;;-7.43;49.86
65534;BME280;53640;55.838;37.184;2023-11-19T04:07:47;99831.75;;;-7.84;49.76
65534;BME280;53640;55.838;37.184;2023-11-19T04:10:15;99886.94;;;-7.54;49.82
65534;BME280;53640;55.838;37.184;2023-11-19T04:12:43;99905.00;;;-7.48;49.74
65534;BME280;53640;55.838;37.184;2023-11-19T04:15:11;99895.59;;;-7.52;49.97
65534;BME280;53640;55.838;37.184;2023-11-19T04:17:37;99874.22;;;-7.61;49.94
65534;BME280;53640;55.838;37.184;2023-11-19T04:20:05;99874.22;;;-7.61;49.86
65534;BME280;53640;55.838;37.184;2023-11-19T04:22:31;99837.78;;;-7.82;50.06
65534;BME280;53640;55.838;37.184;2023-11-19T04:24:58;99877.34;;;-7.55;49.86
65534;BME280;53640;55.838;37.184;2023-11-19T04:27:25;99860.41;;;-7.65;50.03
65534;BME280;53640;55.838;37.184;2023-11-19T04:29:51;99827.50;;;-7.86;49.83
65534;BME280;53640;55.838;37.184;2023-11-19T04:32:18;99885.28;;;-7.40;49.94
65534;BME280;53640;55.838;37.184;2023-11-19T04:34:45;99856.84;;;-7.64;49.65
65534;BME280;53640;55.838;37.184;2023-11-19T04:37:12;99888.09;;;-7.43;49.89
65534;BME280;53640;55.838;37.184;2023-11-19T04:39:40;99835.88;;;-7.80;49.70
65534;BME280;53640;55.838;37.184;2023-11-19T04:42:06;99899.34;;;-7.41;49.57
65534;BME280;53640;55.838;37.184;2023-11-19T04:44:33;99855.06;;;-7.63;49.30
65534;BME280;53640;55.838;37.184;2023-11-19T04:46:59;99868.22;;;-7.63;49.47
65534;BME280;53640;55.838;37.184;2023-11-19T04:49:26;99852.41;;;-7.78;49.44
65534;BME280;53640;55.838;37.184;2023-11-19T04:51:53;99868.31;;;-7.65;49.52
65534;BME280;53640;55.838;37.184;2023-11-19T04:54:19;99894.03;;;-7.56;49.63
65534;BME280;53640;55.838;37.184;2023-11-19T04:56:46;99893.81;;;-7.51;49.65
65534;BME280;53640;55.838;37.184;2023-11-19T04:59:14;99813.66;;;-8.04;49.75
65534;BME280;53640;55.838;37.184;2023-11-19T05:01:41;99899.31;;;-7.56;49.73
65534;BME280;53640;55.838;37.184;2023-11-19T05:04:08;99911.69;;;-7.58;49.74
65534;BME280;53640;55.838;37.184;2023-11-19T05:06:34;99850.56;;;-7.91;49.75
65534;BME280;53640;55.838;37.184;2023-11-19T05:09:01;99850.47;;;-7.90;49.94
65534;BME280;53640;55.838;37.184;2023-11-19T05:11:30;99894.50;;;-7.63;50.20
65534;BME280;53640;55.838;37.184;2023-11-19T05:13:58;99880.72;;;-7.67;50.10
65534;BME280;53640;55.838;37.184;2023-11-19T05:16:24;99900.19;;;-7.55;50.13
65534;BME280;53640;55.838;37.184;2023-11-19T05:18:52;99863.16;;;-7.82;50.25
65534;BME280;53640;55.838;37.184;2023-11-19T05:21:18;99899.69;;;-7.62;50.22
65534;BME280;53640;55.838;37.184;2023-11-19T05:23:45;99893.47;;;-7.61;50.47
65534;BME280;53640;55.838;37.184;2023-11-19T05:26:20;99866.13;;;-7.73;50.46
65534;BME280;53640;55.838;37.184;2023-11-19T05:28:49;99859.94;;;-7.72;50.35
65534;BME280;53640;55.838;37.184;2023-11-19T05:31:17;99856.47;;;-7.72;50.48
65534;BME280;53640;55.838;37.184;2023-11-19T05:33:44;99892.34;;;-7.57;50.37
65534;BME280;53640;55.838;37.184;2023-11-19T05:36:11;99912.50;;;-7.41;50.30
65534;BME280;53640;55.838;37.184;2023-11-19T05:38:39;99878.66;;;-7.62;50.46
65534;BME280;53640;55.838;37.184;2023-11-19T05:41:07;99897.28;;;-7.51;50.15
65534;BME280;53640;55.838;37.184;2023-11-19T05:43:34;99897.94;;;-7.47;50.48
65534;BME280;53640;55.838;37.184;2023-11-19T05:46:00;99909.63;;;-7.37;50.49
65534;BME280;53640;55.838;37.184;2023-11-19T05:48:33;99911.47;;;-7.39;50.35
65534;BME280;53640;55.838;37.184;2023-11-19T05:51:03;99889.22;;;-7.48;50.43
65534;BME280;53640;55.838;37.184;2023-11-19T05:53:32;99755.34;;;-8.25;50.66
65534;BME280;53640;55.838;37.184;2023-11-19T05:55:59;99853.88;;;-7.58;50.59
65534;BME280;53640;55.838;37.184;2023-11-19T05:58:30;99877.41;;;-7.40;50.60
65534;BME280;53640;55.838;37.184;2023-11-19T06:00:56;99834.91;;;-7.63;50.64
65534;BME280;53640;55.838;37.184;2023-11-19T06:03:23;99881.53;;;-7.36;50.65
65534;BME280;53640;55.838;37.184;2023-11-19T06:05:50;99859.34;;;-7.47;50.46
65534;BME280;53640;55.838;37.184;2023-11-19T06:08:17;99879.47;;;-7.31;50.53
65534;BME280;53640;55.838;37.184;2023-11-19T06:10:44;99867.34;;;-7.34;50.59
65534;BME280;53640;55.838;37.184;2023-11-19T06:13:15;99893.50;;;-7.16;50.80
65534;BME280;53640;55.838;37.184;2023-11-19T06:15:42;99828.25;;;-7.54;50.92
65534;BME280;53640;55.838;37.184;2023-11-19T06:18:10;99869.06;;;-7.33;50.73
65534;BME280;53640;55.838;37.184;2023-11-19T06:20:38;99874.31;;;-7.33;50.63
65534;BME280;53640;55.838;37.184;2023-11-19T06:23:05;99840.00;;;-7.46;50.88
65534;BME280;53640;55.838;37.184;2023-11-19T06:25:38;99882.50;;;-7.23;50.97
65534;BME280;53640;55.838;37.184;2023-11-19T06:28:05;99850.50;;;-7.46;51.15
65534;BME280;53640;55.838;37.184;2023-11-19T06:30:31;99886.81;;;-7.22;50.81
65534;BME280;53640;55.838;37.184;2023-11-19T06:32:58;99849.56;;;-7.45;51.12
65534;BME280;53640;55.838;37.184;2023-11-19T06:35:26;99898.59;;;-7.13;51.26
65534;BME280;53640;55.838;37.184;2023-11-19T06:37:52;99897.53;;;-7.11;51.07
65534;BME280;53640;55.838;37.184;2023-11-19T06:40:19;99875.25;;;-7.20;51.25
65534;BME280;53640;55.838;37.184;2023-11-19T06:42:47;99887.13;;;-7.12;51.24
65534;BME280;53640;55.838;37.184;2023-11-19T06:45:14;99864.84;;;-7.21;51.43
65534;BME280;53640;55.838;37.184;2023-11-19T06:47:41;99837.84;;;-7.39;51.49
65534;BME280;53640;55.838;37.184;2023-11-19T06:50:07;99883.72;;;-7.14;51.39
65534;BME280;53640;55.838;37.184;2023-11-19T06:52:33;99882.34;;;-7.06;51.37
65534;BME280;53640;55.838;37.184;2023-11-19T06:55:01;99848.13;;;-7.20;51.40
65534;BME280;53640;55.838;37.184;2023-11-19T06:57:30;99886.00;;;-6.94;51.49
65534;BME280;53640;55.838;37.184;2023-11-19T06:59:58;99809.59;;;-7.35;51.31
65534;BME280;53640;55.838;37.184;2023-11-19T07:02:25;99879.72;;;-6.91;51.37
65534;BME280;53640;55.838;37.184;2023-11-19T07:04:52;99886.50;;;-6.87;51.32
65534;BME280;53640;55.838;37.184;2023-11-19T07:07:19;99857.16;;;-6.96;51.30
65534;BME280;53640;55.838;37.184;2023-11-19T07:09:46;99825.00;;;-7.15;51.22
65534;BME280;53640;55.838;37.184;2023-11-19T07:12:12;99882.53;;;-6.80;51.22
65534;BME280;53640;55.838;37.184;2023-11-19T07:14:40;99889.31;;;-6.76;51.18
65534;BME280;53640;55.838;37.184;2023-11-19T07:17:08;99869.56;;;-6.83;51.15
65534;BME280;53640;55.838;37.184;2023-11-19T07:19:38;99854.13;;;-6.89;51.22
65534;BME280;53640;55.838;37.184;2023-11-19T07:22:06;99756.06;;;-7.49;51.25
65534;BME280;53640;55.838;37.184;2023-11-19T07:24:33;99881.31;;;-6.75;51.24
65534;BME280;53640;55.838;37.184;2023-11-19T07:27:00;99845.69;;;-6.94;51.19
65534;BME280;53640;55.838;37.184;2023-11-19T07:29:26;99860.34;;;-6.90;51.28
65534;BME280;53640;55.838;37.184;2023-11-19T07:31:53;99823.69;;;-7.08;51.39
65534;BME280;53640;55.838;37.184;2023-11-19T07:34:21;99875.38;;;-6.78;51.46
65534;BME280;53640;55.838;37.184;2023-11-19T07:36:47;99873.59;;;-6.78;51.31
65534;BME280;53640;55.838;37.184;2023-11-19T07:39:14;99836.31;;;-6.99;51.25
65534;BME280;53640;55.838;37.184;2023-11-19T07:41:41;99846.66;;;-6.96;51.62
65534;BME280;53640;55.838;37.184;2023-11-19T07:44:10;99874.19;;;-6.73;51.59
65534;BME280;53640;55.838;37.184;2023-11-19T07:46:37;99821.25;;;-6.97;51.48
65534;BME280;53640;55.838;37.184;2023-11-19T07:49:12;99866.94;;;-6.69;51.54
65534;BME280;53640;55.838;37.184;2023-11-19T07:51:39;99843.63;;;-6.75;51.79
65534;BME280;53640;55.838;37.184;2023-11-19T07:54:07;99827.34;;;-6.82;51.73
65534;BME280;53640;55.838;37.184;2023-11-19T07:56:33;99870.84;;;-6.48;52.17
65534;BME280;53640;55.838;37.184;2023-11-19T07:59:02;99860.59;;;-6.52;52.20
65534;BME280;53640;55.838;37.184;2023-11-19T08:01:30;99716.63;;;-7.34;51.88
65534;BME280;53640;55.838;37.184;2023-11-19T08:03:56;99819.63;;;-6.71;51.97
65534;BME280;53640;55.838;37.184;2023-11-19T08:06:23;99845.84;;;-6.55;51.85
65534;BME280;53640;55.838;37.184;2023-11-19T08:08:49;99833.53;;;-6.54;52.04
65534;BME280;53640;55.838;37.184;2023-11-19T08:11:16;99875.59;;;-6.26;51.96
65534;BME280;53640;55.838;37.184;2023-11-19T08:13:46;99863.88;;;-6.34;51.71
65534;BME280;53640;55.838;37.184;2023-11-19T08:16:12;99841.50;;;-6.41;51.50
65534;BME280;53640;55.838;37.184;2023-11-19T08:18:41;99830.13;;;-6.42;51.64
65534;BME280;53640;55.838;37.184;2023-11-19T08:21:08;99824.56;;;-6.37;51.43
65534;BME280;53640;55.838;37.184;2023-11-19T08:23:35;99853.84;;;-6.15;51.46
65534;BME280;53640;55.838;37.184;2023-11-19T08:26:02;99849.53;;;-6.16;51.26
65534;BME280;53640;55.838;37.184;2023-11-19T08:28:29;99853.84;;;-6.15;51.31
65534;BME280;53640;55.838;37.184;2023-11-19T08:30:55;99848.47;;;-6.13;51.21
65534;BME280;53640;55.838;37.184;2023-11-19T08:33:22;99861.38;;;-6.09;51.33
65534;BME280;53640;55.838;37.184;2023-11-19T08:35:48;99852.38;;;-6.06;51.23
65534;BME280;53640;55.838;37.184;2023-11-19T08:38:15;99836.03;;;-6.11;51.29
65534;BME280;53640;55.838;37.184;2023-11-19T08:40:45;99842.50;;;-6.03;51.33
65534;BME280;53640;55.838;37.184;2023-11-19T08:43:12;99850.09;;;-5.98;51.23
65534;BME280;53640;55.838;37.184;2023-11-19T08:45:38;99847.38;;;-5.96;51.42
65534;BME280;53640;55.838;37.184;2023-11-19T08:48:06;99840.50;;;-5.99;51.22
65534;BME280;53640;55.838;37.184;2023-11-19T08:50:34;99846.56;;;-5.84;51.16
65534;BME280;53640;55.838;37.184;2023-11-19T08:53:01;99837.56;;;-5.94;50.96
65534;BME280;53640;55.838;37.184;2023-11-19T08:55:28;99826.94;;;-5.93;51.05
65534;BME280;53640;55.838;37.184;2023-11-19T08:57:54;99854.09;;;-5.78;50.93
65534;BME280;53640;55.838;37.184;2023-11-19T09:00:22;99852.78;;;-5.85;50.86
65534;BME280;53640;55.838;37.184;2023-11-19T09:02:49;99858.38;;;-5.90;50.63
65534;BME280;53640;55.838;37.184;2023-11-19T09:05:15;99860.91;;;-5.88;50.81
65534;BME280;53640;55.838;37.184;2023-11-19T09:07:42;99804.72;;;-6.16;50.87
65534;BME280;53640;55.838;37.184;2023-11-19T09:10:10;99811.84;;;-6.04;50.85
65534;BME280;53640;55.838;37.184;2023-11-19T09:12:37;99856.59;;;-5.77;51.01
65534;BME280;53640;55.838;37.184;2023-11-19T09:15:04;99841.09;;;-5.81;50.52
65534;BME280;53640;55.838;37.184;2023-11-19T09:17:31;99848.69;;;-5.77;50.35
65534;BME280;53640;55.838;37.184;2023-11-19T09:19:58;99817.88;;;-5.89;50.83
65534;BME280;53640;55.838;37.184;2023-11-19T09:22:25;99836.28;;;-5.75;50.97
65534;BME280;53640;55.838;37.184;2023-11-19T09:24:51;99829.19;;;-5.74;50.71
65534;BME280;53640;55.838;37.184;2023-11-19T09:27:18;99774.81;;;-6.02;50.72
65534;BME280;53640;55.838;37.184;2023-11-19T09:29:44;99825.41;;;-5.70;50.29
65534;BME280;53640;55.838;37.184;2023-11-19T09:32:12;99824.25;;;-5.66;50.43
65534;BME280;53640;55.838;37.184;2023-11-19T09:34:39;99787.28;;;-5.91;50.39
65534;BME280;53640;55.838;37.184;2023-11-19T09:37:06;99787.63;;;-5.83;50.43
65534;BME280;53640;55.838;37.184;2023-11-19T09:39:34;99683.94;;;-6.35;50.60
65534;BME280;53640;55.838;37.184;2023-11-19T09:42:00;99794.53;;;-5.55;50.67
65534;BME280;53640;55.838;37.184;2023-11-19T09:44:27;99782.19;;;-5.55;50.46
65534;BME280;53640;55.838;37.184;2023-11-19T09:46:56;99776.50;;;-5.48;50.49
65534;BME280;53640;55.838;37.184;2023-11-19T09:49:26;99786.19;;;-5.49;50.13
65534;BME280;53640;55.838;37.184;2023-11-19T09:51:53;99740.19;;;-5.70;50.12
65534;BME280;53640;55.838;37.184;2023-11-19T09:54:21;99763.94;;;-5.58;50.18
65534;BME280;53640;55.838;37.184;2023-11-19T09:56:48;99737.34;;;-5.80;50.02
65534;BME280;53640;55.838;37.184;2023-11-19T09:59:17;99765.22;;;-5.63;49.80
65534;BME280;53640;55.838;37.184;2023-11-19T10:01:49;99782.50;;;-5.59;49.49
65534;BME280;53640;55.838;37.184;2023-11-19T10:04:15;99751.47;;;-5.81;49.54
65534;BME280;53640;55.838;37.184;2023-11-19T10:06:44;99735.53;;;-5.92;49.79
65534;BME280;53640;55.838;37.184;2023-11-19T10:09:12;99714.53;;;-6.07;50.13
65534;BME280;53640;55.838;37.184;2023-11-19T10:11:41;99762.13;;;-5.70;49.98
65534;BME280;53640;55.838;37.184;2023-11-19T10:14:11;99769.84;;;-5.67;49.95
65534;BME280;53640;55.838;37.184;2023-11-19T10:16:37;99765.50;;;-5.68;49.93
65534;BME280;53640;55.838;37.184;2023-11-19T10:19:04;99756.63;;;-5.80;49.72
65534;BME280;53640;55.838;37.184;2023-11-19T10:21:38;99776.03;;;-5.68;49.64
65534;BME280;53640;55.838;37.184;2023-11-19T10:24:05;99756.00;;;-5.83;49.19
65534;BME280;53640;55.838;37.184;2023-11-19T10:26:32;99754.44;;;-5.86;49.13
65534;BME280;53640;55.838;37.184;2023-11-19T10:29:00;99713.56;;;-6.06;49.30
65534;BME280;53640;55.838;37.184;2023-11-19T10:31:28;99731.84;;;-5.90;49.28
65534;BME280;53640;55.838;37.184;2023-11-19T10:33:55;99706.22;;;-6.01;49.17
65534;BME280;53640;55.838;37.184;2023-11-19T10:36:22;99729.09;;;-5.88;49.16
65534;BME280;53640;55.838;37.184;2023-11-19T10:38:53;99727.00;;;-5.83;48.81
65534;BME280;53640;55.838;37.184;2023-11-19T10:41:31;99725.84;;;-5.92;48.33
65534;BME280;53640;55.838;37.184;2023-11-19T10:43:59;99732.25;;;-5.83;48.39
65534;BME280;53640;55.838;37.184;2023-11-19T10:46:42;99742.59;;;-5.80;48.21
65534;BME280;53640;55.838;37.184;2023-11-19T10:49:13;99740.09;;;-5.82;48.08
65534;BME280;53640;55.838;37.184;2023-11-19T10:51:49;99747.88;;;-5.80;48.03
65534;BME280;53640;55.838;37.184;2023-11-19T10:54:22;99754.63;;;-5.76;47.76
65534;BME280;53640;55.838;37.184;2023-11-19T10:56:55;99739.44;;;-5.85;47.71
65534;BME280;53640;55.838;37.184;2023-11-19T10:59:28;99751.06;;;-5.75;47.55
65534;BME280;53640;55.838;37.184;2023-11-19T11:01:56;99759.19;;;-5.78;47.47
65534;BME280;53640;55.838;37.184;2023-11-19T11:04:24;99755.47;;;-5.88;47.41
65534;BME280;53640;55.838;37.184;2023-11-19T11:06:55;99768.97;;;-5.80;47.81
65534;BME280;53640;55.838;37.184;2023-11-19T11:09:26;99743.63;;;-5.95;47.65
65534;BME280;53640;55.838;37.184;2023-11-19T11:11:55;99699.44;;;-6.17;47.63
65534;BME280;53640;55.838;37.184;2023-11-19T11:14:24;99726.34;;;-6.00;48.00
65534;BME280;53640;55.838;37.184;2023-11-19T11:16:53;99740.69;;;-5.91;48.37
65534;BME280;53640;55.838;37.184;2023-11-19T11:19:19;99753.88;;;-5.91;48.29
65534;BME280;53640;55.838;37.184;2023-11-19T11:21:50;99730.03;;;-6.02;48.48
65534;BME280;53640;55.838;37.184;2023-11-19T11:32:14;99746.41;;;-5.71;48.73
65534;BME280;53640;55.838;37.184;2023-11-19T11:37:52;99734.19;;;-5.47;49.14
65534;BME280;53640;55.838;37.184;2023-11-19T11:40:23;99718.78;;;-5.40;48.78
65534;BME280;53640;55.838;37.184;2023-11-19T11:42:51;99687.75;;;-5.50;48.19
65534;BME280;53640;55.838;37.184;2023-11-19T11:45:19;99723.41;;;-5.18;47.66
65534;BME280;53640;55.838;37.184;2023-11-19T11:48:10;99727.91;;;-5.08;47.67
65534;BME280;53640;55.838;37.184;2023-11-19T11:50:57;99684.59;;;-5.29;47.49
65534;BME280;53640;55.838;37.184;2023-11-19T11:53:25;99730.88;;;-4.99;47.17
65534;BME280;53640;55.838;37.184;2023-11-19T11:55:53;99729.47;;;-4.92;46.63
65534;BME280;53640;55.838;37.184;2023-11-19T11:58:31;99701.09;;;-5.02;45.67
65534;BME280;53640;55.838;37.184;2023-11-19T12:00:59;99724.56;;;-4.86;45.76
65534;BME280;53640;55.838;37.184;2023-11-19T12:03:28;99716.56;;;-4.84;45.50
65534;BME280;53640;55.838;37.184;2023-11-19T12:05:57;99696.22;;;-5.08;45.32
65534;BME280;53640;55.838;37.184;2023-11-19T12:08:26;99695.09;;;-5.04;45.50
65534;BME280;53640;55.838;37.184;2023-11-19T12:10:55;99717.00;;;-4.90;45.53
65534;BME280;53640;55.838;37.184;2023-11-19T12:13:43;99601.41;;;-5.71;45.12
65534;BME280;53640;55.838;37.184;2023-11-19T12:16:14;99710.94;;;-5.04;45.40
65534;BME280;53640;55.838;37.184;2023-11-19T12:18:41;99710.84;;;-5.15;45.13
65534;BME280;53640;55.838;37.184;2023-11-19T12:21:09;99626.41;;;-5.77;45.45
65534;BME280;53640;55.838;37.184;2023-11-19T12:23:48;99665.81;;;-5.50;45.39
65534;BME280;53640;55.838;37.184;2023-11-19T12:26:40;99711.19;;;-5.32;45.60
65534;BME280;53640;55.838;37.184;2023-11-19T12:29:07;99655.38;;;-5.64;45.76
65534;BME280;53640;55.838;37.184;2023-11-19T12:31:34;99718.75;;;-5.28;45.75
65534;BME280;53640;55.838;37.184;2023-11-19T12:34:05;99710.53;;;-5.36;45.92
65534;BME280;53640;55.838;37.184;2023-11-19T12:36:32;99706.03;;;-5.34;46.04
65534;BME280;53640;55.838;37.184;2023-11-19T12:39:00;99676.56;;;-5.53;45.76
65534;BME280;53640;55.838;37.184;2023-11-19T12:41:27;99708.03;;;-5.37;45.93
65534;BME280;53640;55.838;37.184;2023-11-19T12:44:10;99706.56;;;-5.41;45.84
65534;BME280;53640;55.838;37.184;2023-11-19T12:46:37;99712.34;;;-5.49;45.99
65534;BME280;53640;55.838;37.184;2023-11-19T12:49:04;99690.41;;;-5.62;46.07
65534;BME280;53640;55.838;37.184;2023-11-19T12:51:35;99711.09;;;-5.56;46.00
65534;BME280;53640;55.838;37.184;2023-11-19T12:54:06;99699.81;;;-5.58;46.14
65534;BME280;53640;55.838;37.184;2023-11-19T12:56:37;99652.66;;;-5.88;46.20
65534;BME280;53640;55.838;37.184;2023-11-19T12:59:12;99710.75;;;-5.64;46.24
65534;BME280;53640;55.838;37.184;2023-11-19T13:01:40;99642.44;;;-6.06;46.31
65534;BME280;53640;55.838;37.184;2023-11-19T13:04:17;99577.00;;;-6.37;46.31
65534;BME280;53640;55.838;37.184;2023-11-19T13:06:49;99630.31;;;-6.08;46.35